sensor_id;sensor_type;location;lat;lon;timestamp;P1;durP1;ratioP1;P2;durP2;ratioP2
25780;SDS011;13626;48.128;11.628;2022-08-19T00:01:53;5.82;;;4.85;;
25780;SDS011;13626;48.128;11.628;2022-08-19T00:04:22;5.03;;;4.53;;
25780;SDS011;13626;48.128;11.628;2022-08-19T00:06:50;5.13;;;4.40;;
25780;SDS011;13626;48.128;11.628;2022-08-19T00:09:18;5.75;;;4.97;;
25780;SDS011;13626;48.128;11.628;2022-08-19T00:11:46;5.15;;;4.65;;
25780;SDS011;13626;48.128;11.628;2022-08-19T00:14:14;5.50;;;5.00;;
25780;SDS011;13626;48.128;11.628;2022-08-19T00:16:43;8.20;;;5.40;;
25780;SDS011;13626;48.128;11.628;2022-08-19T00:19:10;5.82;;;4.93;;
25780;SDS011;13626;48.128;11.628;2022-08-19T00:21:38;5.38;;;4.88;;
25780;SDS011;13626;48.128;11.628;2022-08-19T00:24:09;5.35;;;4.85;;
25780;SDS011;13626;48.128;11.628;2022-08-19T00:26:37;5.47;;;4.68;;
25780;SDS011;13626;48.128;11.628;2022-08-19T00:29:05;6.10;;;5.50;;
25780;SDS011;13626;48.128;11.628;2022-08-19T00:31:32;6.40;;;5.32;;
25780;SDS011;13626;48.128;11.628;2022-08-19T00:34:00;5.90;;;5.30;;
25780;SDS011;13626;48.128;11.628;2022-08-19T00:36:27;6.10;;;5.40;;
25780;SDS011;13626;48.128;11.628;2022-08-19T00:38:55;7.10;;;5.63;;
25780;SDS011;13626;48.128;11.628;2022-08-19T00:41:23;7.20;;;5.40;;
25780;SDS011;13626;48.128;11.628;2022-08-19T00:46:30;6.53;;;5.82;;
25780;SDS011;13626;48.128;11.628;2022-08-19T00:48:59;7.32;;;6.40;;
25780;SDS011;13626;48.128;11.628;2022-08-19T00:51:27;7.60;;;5.60;;
25780;SDS011;13626;48.128;11.628;2022-08-19T00:53:56;7.80;;;6.45;;
25780;SDS011;13626;48.128;11.628;2022-08-19T00:56:24;6.43;;;5.18;;
25780;SDS011;13626;48.128;11.628;2022-08-19T00:58:54;6.88;;;6.18;;
25780;SDS011;13626;48.128;11.628;2022-08-19T01:01:21;6.70;;;6.00;;
25780;SDS011;13626;48.128;11.628;2022-08-19T01:03:49;7.85;;;5.97;;
25780;SDS011;13626;48.128;11.628;2022-08-19T01:06:23;6.75;;;5.88;;
25780;SDS011;13626;48.128;11.628;2022-08-19T01:08:50;6.80;;;5.95;;
25780;SDS011;13626;48.128;11.628;2022-08-19T01:11:17;7.40;;;6.70;;
25780;SDS011;13626;48.128;11.628;2022-08-19T01:13:44;7.90;;;7.10;;
25780;SDS011;13626;48.128;11.628;2022-08-19T01:16:15;7.55;;;6.32;;
25780;SDS011;13626;48.128;11.628;2022-08-19T01:18:43;7.70;;;6.93;;
25780;SDS011;13626;48.128;11.628;2022-08-19T01:21:12;10.02;;;6.75;;
25780;SDS011;13626;48.128;11.628;2022-08-19T01:23:43;7.25;;;6.55;;
25780;SDS011;13626;48.128;11.628;2022-08-19T01:28:40;8.13;;;7.05;;
25780;SDS011;13626;48.128;11.628;2022-08-19T01:31:13;10.13;;;7.85;;
25780;SDS011;13626;48.128;11.628;2022-08-19T01:33:53;8.98;;;7.95;;
25780;SDS011;13626;48.128;11.628;2022-08-19T01:36:26;8.48;;;7.35;;
25780;SDS011;13626;48.128;11.628;2022-08-19T01:38:54;9.00;;;7.60;;
25780;SDS011;13626;48.128;11.628;2022-08-19T01:41:21;7.47;;;6.63;;
25780;SDS011;13626;48.128;11.628;2022-08-19T01:43:50;8.30;;;7.18;;
25780;SDS011;13626;48.128;11.628;2022-08-19T01:46:37;8.82;;;7.68;;
25780;SDS011;13626;48.128;11.628;2022-08-19T01:49:04;8.65;;;6.78;;
25780;SDS011;13626;48.128;11.628;2022-08-19T01:51:32;8.90;;;7.93;;
25780;SDS011;13626;48.128;11.628;2022-08-19T01:54:05;8.45;;;6.93;;
25780;SDS011;13626;48.128;11.628;2022-08-19T01:56:32;8.50;;;6.85;;
25780;SDS011;13626;48.128;11.628;2022-08-19T01:59:05;8.15;;;7.20;;
25780;SDS011;13626;48.128;11.628;2022-08-19T02:01:33;7.20;;;6.40;;
25780;SDS011;13626;48.128;11.628;2022-08-19T02:04:01;8.02;;;7.00;;
25780;SDS011;13626;48.128;11.628;2022-08-19T02:06:29;9.52;;;7.00;;
25780;SDS011;13626;48.128;11.628;2022-08-19T02:08:56;8.00;;;7.05;;
25780;SDS011;13626;48.128;11.628;2022-08-19T02:11:25;7.97;;;7.13;;
25780;SDS011;13626;48.128;11.628;2022-08-19T02:13:53;9.63;;;6.68;;
25780;SDS011;13626;48.128;11.628;2022-08-19T02:16:20;6.45;;;5.85;;
25780;SDS011;13626;48.128;11.628;2022-08-19T02:18:47;7.78;;;6.55;;
25780;SDS011;13626;48.128;11.628;2022-08-19T02:21:15;7.47;;;6.50;;
25780;SDS011;13626;48.128;11.628;2022-08-19T02:23:42;8.57;;;6.47;;
25780;SDS011;13626;48.128;11.628;2022-08-19T02:26:11;8.98;;;6.07;;
25780;SDS011;13626;48.128;11.628;2022-08-19T02:28:39;7.25;;;6.28;;
25780;SDS011;13626;48.128;11.628;2022-08-19T02:31:11;7.68;;;5.55;;
25780;SDS011;13626;48.128;11.628;2022-08-19T02:33:38;5.90;;;5.18;;
25780;SDS011;13626;48.128;11.628;2022-08-19T02:36:06;6.68;;;5.88;;
25780;SDS011;13626;48.128;11.628;2022-08-19T02:38:33;6.82;;;5.78;;
25780;SDS011;13626;48.128;11.628;2022-08-19T02:41:02;6.80;;;5.75;;
25780;SDS011;13626;48.128;11.628;2022-08-19T02:43:30;7.35;;;5.78;;
25780;SDS011;13626;48.128;11.628;2022-08-19T02:45:59;5.93;;;5.30;;
25780;SDS011;13626;48.128;11.628;2022-08-19T02:48:26;5.72;;;5.20;;
25780;SDS011;13626;48.128;11.628;2022-08-19T02:50:53;6.50;;;5.85;;
25780;SDS011;13626;48.128;11.628;2022-08-19T02:53:22;5.90;;;5.18;;
25780;SDS011;13626;48.128;11.628;2022-08-19T02:55:50;6.35;;;5.05;;
25780;SDS011;13626;48.128;11.628;2022-08-19T02:58:18;6.53;;;5.82;;
25780;SDS011;13626;48.128;11.628;2022-08-19T03:00:47;5.30;;;4.80;;
25780;SDS011;13626;48.128;11.628;2022-08-19T03:03:15;6.97;;;5.88;;
25780;SDS011;13626;48.128;11.628;2022-08-19T03:05:43;8.73;;;5.45;;
25780;SDS011;13626;48.128;11.628;2022-08-19T03:08:21;5.53;;;4.97;;
25780;SDS011;13626;48.128;11.628;2022-08-19T03:10:48;6.22;;;5.47;;
25780;SDS011;13626;48.128;11.628;2022-08-19T03:13:16;5.63;;;5.05;;
25780;SDS011;13626;48.128;11.628;2022-08-19T03:15:45;6.72;;;6.05;;
25780;SDS011;13626;48.128;11.628;2022-08-19T03:18:13;9.25;;;5.53;;
25780;SDS011;13626;48.128;11.628;2022-08-19T03:20:43;6.10;;;5.50;;
25780;SDS011;13626;48.128;11.628;2022-08-19T03:23:11;9.00;;;6.22;;
25780;SDS011;13626;48.128;11.628;2022-08-19T03:25:40;7.90;;;6.15;;
25780;SDS011;13626;48.128;11.628;2022-08-19T03:28:09;5.32;;;4.82;;
25780;SDS011;13626;48.128;11.628;2022-08-19T03:30:38;6.32;;;5.50;;
25780;SDS011;13626;48.128;11.628;2022-08-19T03:33:09;6.88;;;6.18;;
25780;SDS011;13626;48.128;11.628;2022-08-19T03:36:07;6.47;;;5.70;;
25780;SDS011;13626;48.128;11.628;2022-08-19T03:38:42;5.90;;;5.30;;
25780;SDS011;13626;48.128;11.628;2022-08-19T03:41:12;5.97;;;5.38;;
25780;SDS011;13626;48.128;11.628;2022-08-19T03:43:41;5.78;;;5.20;;
25780;SDS011;13626;48.128;11.628;2022-08-19T03:46:11;6.20;;;5.53;;
25780;SDS011;13626;48.128;11.628;2022-08-19T03:48:39;5.28;;;4.75;;
25780;SDS011;13626;48.128;11.628;2022-08-19T03:51:06;7.47;;;5.63;;
25780;SDS011;13626;48.128;11.628;2022-08-19T03:53:34;6.28;;;5.68;;
25780;SDS011;13626;48.128;11.628;2022-08-19T03:56:01;6.03;;;4.93;;
25780;SDS011;13626;48.128;11.628;2022-08-19T03:58:29;6.10;;;5.40;;
25780;SDS011;13626;48.128;11.628;2022-08-19T04:00:57;6.45;;;5.38;;
25780;SDS011;13626;48.128;11.628;2022-08-19T04:03:25;5.05;;;4.55;;
25780;SDS011;13626;48.128;11.628;2022-08-19T04:05:55;6.53;;;4.95;;
25780;SDS011;13626;48.128;11.628;2022-08-19T04:08:22;5.65;;;5.03;;
25780;SDS011;13626;48.128;11.628;2022-08-19T04:10:49;5.80;;;4.70;;
25780;SDS011;13626;48.128;11.628;2022-08-19T04:13:17;5.70;;;4.88;;
25780;SDS011;13626;48.128;11.628;2022-08-19T04:15:45;7.15;;;5.40;;
25780;SDS011;13626;48.128;11.628;2022-08-19T04:18:13;5.70;;;5.05;;
25780;SDS011;13626;48.128;11.628;2022-08-19T04:20:41;5.32;;;4.68;;
25780;SDS011;13626;48.128;11.628;2022-08-19T04:23:09;6.10;;;4.80;;
25780;SDS011;13626;48.128;11.628;2022-08-19T04:25:43;6.38;;;5.65;;
25780;SDS011;13626;48.128;11.628;2022-08-19T04:28:12;6.47;;;5.77;;
25780;SDS011;13626;48.128;11.628;2022-08-19T04:30:43;8.18;;;6.03;;
25780;SDS011;13626;48.128;11.628;2022-08-19T04:33:11;6.78;;;6.07;;
25780;SDS011;13626;48.128;11.628;2022-08-19T04:35:40;7.18;;;5.95;;
25780;SDS011;13626;48.128;11.628;2022-08-19T04:38:08;6.47;;;5.53;;
25780;SDS011;13626;48.128;11.628;2022-08-19T04:40:42;7.35;;;5.40;;
25780;SDS011;13626;48.128;11.628;2022-08-19T04:43:29;6.80;;;5.50;;
25780;SDS011;13626;48.128;11.628;2022-08-19T04:45:56;6.72;;;5.50;;
25780;SDS011;13626;48.128;11.628;2022-08-19T04:48:26;8.43;;;6.28;;
25780;SDS011;13626;48.128;11.628;2022-08-19T04:50:54;8.82;;;7.40;;
25780;SDS011;13626;48.128;11.628;2022-08-19T04:53:24;8.35;;;6.57;;
25780;SDS011;13626;48.128;11.628;2022-08-19T04:55:52;8.40;;;7.25;;
25780;SDS011;13626;48.128;11.628;2022-08-19T04:58:20;8.55;;;7.50;;
25780;SDS011;13626;48.128;11.628;2022-08-19T05:00:47;8.40;;;7.10;;
25780;SDS011;13626;48.128;11.628;2022-08-19T05:03:14;7.38;;;5.60;;
25780;SDS011;13626;48.128;11.628;2022-08-19T05:05:46;6.13;;;5.43;;
25780;SDS011;13626;48.128;11.628;2022-08-19T05:08:18;8.77;;;7.00;;
25780;SDS011;13626;48.128;11.628;2022-08-19T05:10:56;7.38;;;6.25;;
25780;SDS011;13626;48.128;11.628;2022-08-19T05:13:23;7.63;;;6.05;;
25780;SDS011;13626;48.128;11.628;2022-08-19T05:15:57;6.03;;;5.35;;
25780;SDS011;13626;48.128;11.628;2022-08-19T05:18:25;5.93;;;5.32;;
25780;SDS011;13626;48.128;11.628;2022-08-19T05:21:12;6.88;;;5.43;;
25780;SDS011;13626;48.128;11.628;2022-08-19T05:23:58;5.38;;;4.50;;
25780;SDS011;13626;48.128;11.628;2022-08-19T05:26:25;7.40;;;5.40;;
25780;SDS011;13626;48.128;11.628;2022-08-19T05:28:53;6.70;;;5.60;;
25780;SDS011;13626;48.128;11.628;2022-08-19T05:31:21;6.60;;;5.78;;
25780;SDS011;13626;48.128;11.628;2022-08-19T05:33:48;7.70;;;5.35;;
25780;SDS011;13626;48.128;11.628;2022-08-19T05:36:16;7.40;;;5.40;;
25780;SDS011;13626;48.128;11.628;2022-08-19T05:38:45;9.20;;;6.85;;
25780;SDS011;13626;48.128;11.628;2022-08-19T05:41:13;7.78;;;6.35;;
25780;SDS011;13626;48.128;11.628;2022-08-19T05:43:42;8.20;;;6.22;;
25780;SDS011;13626;48.128;11.628;2022-08-19T05:46:13;8.75;;;6.32;;
25780;SDS011;13626;48.128;11.628;2022-08-19T05:48:43;8.30;;;6.35;;
25780;SDS011;13626;48.128;11.628;2022-08-19T05:51:11;8.70;;;5.82;;
25780;SDS011;13626;48.128;11.628;2022-08-19T05:53:42;7.25;;;6.00;;
25780;SDS011;13626;48.128;11.628;2022-08-19T05:56:12;8.90;;;6.43;;
25780;SDS011;13626;48.128;11.628;2022-08-19T05:58:40;7.35;;;6.05;;
25780;SDS011;13626;48.128;11.628;2022-08-19T06:01:12;9.20;;;7.13;;
25780;SDS011;13626;48.128;11.628;2022-08-19T06:03:40;7.25;;;5.50;;
25780;SDS011;13626;48.128;11.628;2022-08-19T06:06:08;7.78;;;6.57;;
25780;SDS011;13626;48.128;11.628;2022-08-19T06:08:36;6.35;;;5.70;;
25780;SDS011;13626;48.128;11.628;2022-08-19T06:11:14;8.43;;;6.53;;
25780;SDS011;13626;48.128;11.628;2022-08-19T06:13:43;7.55;;;5.57;;
25780;SDS011;13626;48.128;11.628;2022-08-19T06:16:13;7.10;;;6.03;;
25780;SDS011;13626;48.128;11.628;2022-08-19T06:18:46;7.30;;;6.30;;
25780;SDS011;13626;48.128;11.628;2022-08-19T06:21:14;8.75;;;6.75;;
25780;SDS011;13626;48.128;11.628;2022-08-19T06:23:41;8.15;;;7.00;;
25780;SDS011;13626;48.128;11.628;2022-08-19T06:26:11;8.10;;;7.25;;
25780;SDS011;13626;48.128;11.628;2022-08-19T06:28:38;9.98;;;7.85;;
25780;SDS011;13626;48.128;11.628;2022-08-19T06:31:13;9.27;;;7.55;;
25780;SDS011;13626;48.128;11.628;2022-08-19T06:33:40;9.90;;;8.38;;
25780;SDS011;13626;48.128;11.628;2022-08-19T06:36:15;13.07;;;7.85;;
25780;SDS011;13626;48.128;11.628;2022-08-19T06:38:42;11.57;;;8.88;;
25780;SDS011;13626;48.128;11.628;2022-08-19T06:41:11;10.13;;;8.82;;
25780;SDS011;13626;48.128;11.628;2022-08-19T06:43:39;12.27;;;10.23;;
25780;SDS011;13626;48.128;11.628;2022-08-19T06:46:09;10.13;;;8.48;;
25780;SDS011;13626;48.128;11.628;2022-08-19T06:48:39;13.63;;;9.30;;
25780;SDS011;13626;48.128;11.628;2022-08-19T06:51:11;10.63;;;8.88;;
25780;SDS011;13626;48.128;11.628;2022-08-19T06:53:45;11.25;;;9.52;;
25780;SDS011;13626;48.128;11.628;2022-08-19T06:56:15;10.43;;;9.07;;
25780;SDS011;13626;48.128;11.628;2022-08-19T06:58:42;11.18;;;9.80;;
25780;SDS011;13626;48.128;11.628;2022-08-19T07:01:10;13.50;;;9.68;;
25780;SDS011;13626;48.128;11.628;2022-08-19T07:03:37;11.05;;;9.15;;
25780;SDS011;13626;48.128;11.628;2022-08-19T07:06:09;11.48;;;9.07;;
25780;SDS011;13626;48.128;11.628;2022-08-19T07:08:57;14.88;;;10.10;;
25780;SDS011;13626;48.128;11.628;2022-08-19T07:11:24;13.27;;;11.18;;
25780;SDS011;13626;48.128;11.628;2022-08-19T07:13:54;14.82;;;9.70;;
25780;SDS011;13626;48.128;11.628;2022-08-19T07:16:22;15.57;;;11.40;;
25780;SDS011;13626;48.128;11.628;2022-08-19T07:18:54;15.25;;;11.50;;
25780;SDS011;13626;48.128;11.628;2022-08-19T07:21:24;12.73;;;10.52;;
25780;SDS011;13626;48.128;11.628;2022-08-19T07:23:55;14.32;;;11.75;;
25780;SDS011;13626;48.128;11.628;2022-08-19T07:26:27;14.95;;;12.00;;
25780;SDS011;13626;48.128;11.628;2022-08-19T07:28:55;13.55;;;11.02;;
25780;SDS011;13626;48.128;11.628;2022-08-19T07:31:25;14.73;;;11.43;;
25780;SDS011;13626;48.128;11.628;2022-08-19T07:33:56;13.38;;;9.50;;
25780;SDS011;13626;48.128;11.628;2022-08-19T07:36:24;14.43;;;11.30;;
25780;SDS011;13626;48.128;11.628;2022-08-19T07:38:59;17.95;;;12.60;;
25780;SDS011;13626;48.128;11.628;2022-08-19T07:41:27;14.23;;;11.82;;
25780;SDS011;13626;48.128;11.628;2022-08-19T07:44:00;13.50;;;10.50;;
25780;SDS011;13626;48.128;11.628;2022-08-19T07:46:33;12.50;;;11.13;;
25780;SDS011;13626;48.128;11.628;2022-08-19T07:49:01;13.02;;;11.35;;
25780;SDS011;13626;48.128;11.628;2022-08-19T07:51:29;14.65;;;12.23;;
25780;SDS011;13626;48.128;11.628;2022-08-19T07:54:02;16.70;;;12.95;;
25780;SDS011;13626;48.128;11.628;2022-08-19T07:56:30;16.20;;;12.95;;
25780;SDS011;13626;48.128;11.628;2022-08-19T07:58:57;15.73;;;12.90;;
25780;SDS011;13626;48.128;11.628;2022-08-19T08:01:25;14.60;;;11.55;;
25780;SDS011;13626;48.128;11.628;2022-08-19T08:03:54;15.15;;;12.35;;
25780;SDS011;13626;48.128;11.628;2022-08-19T08:06:40;13.35;;;10.75;;
25780;SDS011;13626;48.128;11.628;2022-08-19T08:09:28;17.75;;;13.90;;
25780;SDS011;13626;48.128;11.628;2022-08-19T08:12:02;12.85;;;11.40;;
25780;SDS011;13626;48.128;11.628;2022-08-19T08:14:54;16.65;;;12.98;;
25780;SDS011;13626;48.128;11.628;2022-08-19T08:17:24;14.80;;;12.82;;
25780;SDS011;13626;48.128;11.628;2022-08-19T08:20:12;20.88;;;15.38;;
25780;SDS011;13626;48.128;11.628;2022-08-19T08:22:42;22.13;;;15.35;;
25780;SDS011;13626;48.128;11.628;2022-08-19T08:25:28;19.75;;;14.25;;
25780;SDS011;13626;48.128;11.628;2022-08-19T08:27:59;17.70;;;13.40;;
25780;SDS011;13626;48.128;11.628;2022-08-19T08:30:27;17.35;;;13.73;;
25780;SDS011;13626;48.128;11.628;2022-08-19T08:32:58;18.42;;;13.13;;
25780;SDS011;13626;48.128;11.628;2022-08-19T08:35:27;16.23;;;12.98;;
25780;SDS011;13626;48.128;11.628;2022-08-19T08:37:55;18.33;;;13.10;;
25780;SDS011;13626;48.128;11.628;2022-08-19T08:45:38;16.85;;;13.13;;
25780;SDS011;13626;48.128;11.628;2022-08-19T08:48:13;18.27;;;14.38;;
25780;SDS011;13626;48.128;11.628;2022-08-19T08:50:49;18.90;;;14.90;;
25780;SDS011;13626;48.128;11.628;2022-08-19T08:53:18;16.88;;;12.85;;
25780;SDS011;13626;48.128;11.628;2022-08-19T08:55:59;17.17;;;13.07;;
25780;SDS011;13626;48.128;11.628;2022-08-19T08:58:48;16.45;;;12.68;;
25780;SDS011;13626;48.128;11.628;2022-08-19T09:01:20;16.23;;;12.82;;
25780;SDS011;13626;48.128;11.628;2022-08-19T09:03:47;19.83;;;15.02;;
25780;SDS011;13626;48.128;11.628;2022-08-19T09:14:10;18.85;;;14.13;;
25780;SDS011;13626;48.128;11.628;2022-08-19T09:17:03;15.98;;;12.57;;
25780;SDS011;13626;48.128;11.628;2022-08-19T09:19:50;18.23;;;14.13;;
25780;SDS011;13626;48.128;11.628;2022-08-19T09:22:18;17.40;;;14.02;;
25780;SDS011;13626;48.128;11.628;2022-08-19T09:24:51;19.92;;;14.68;;
25780;SDS011;13626;48.128;11.628;2022-08-19T09:27:19;19.27;;;14.82;;
25780;SDS011;13626;48.128;11.628;2022-08-19T09:30:07;18.23;;;14.38;;
25780;SDS011;13626;48.128;11.628;2022-08-19T09:32:35;16.77;;;12.73;;
25780;SDS011;13626;48.128;11.628;2022-08-19T09:35:05;17.00;;;13.13;;
25780;SDS011;13626;48.128;11.628;2022-08-19T09:37:34;16.00;;;12.95;;
25780;SDS011;13626;48.128;11.628;2022-08-19T09:40:01;15.82;;;12.35;;
25780;SDS011;13626;48.128;11.628;2022-08-19T09:42:30;16.02;;;12.32;;
25780;SDS011;13626;48.128;11.628;2022-08-19T09:45:00;15.77;;;12.75;;
25780;SDS011;13626;48.128;11.628;2022-08-19T09:47:35;14.50;;;10.73;;
25780;SDS011;13626;48.128;11.628;2022-08-19T09:50:07;13.77;;;11.35;;
25780;SDS011;13626;48.128;11.628;2022-08-19T09:52:35;14.95;;;11.65;;
25780;SDS011;13626;48.128;11.628;2022-08-19T09:55:04;15.10;;;12.13;;
25780;SDS011;13626;48.128;11.628;2022-08-19T09:57:33;15.57;;;11.23;;
25780;SDS011;13626;48.128;11.628;2022-08-19T10:00:02;14.27;;;11.45;;
25780;SDS011;13626;48.128;11.628;2022-08-19T10:02:30;16.08;;;11.98;;
25780;SDS011;13626;48.128;11.628;2022-08-19T10:04:59;13.32;;;11.23;;
25780;SDS011;13626;48.128;11.628;2022-08-19T10:07:52;13.98;;;12.15;;
25780;SDS011;13626;48.128;11.628;2022-08-19T10:10:22;13.98;;;11.68;;
25780;SDS011;13626;48.128;11.628;2022-08-19T10:12:50;14.07;;;11.10;;
25780;SDS011;13626;48.128;11.628;2022-08-19T10:15:17;11.32;;;10.13;;
25780;SDS011;13626;48.128;11.628;2022-08-19T10:17:54;12.55;;;10.85;;
25780;SDS011;13626;48.128;11.628;2022-08-19T10:20:23;10.05;;;9.02;;
25780;SDS011;13626;48.128;11.628;2022-08-19T10:22:51;11.38;;;9.50;;
25780;SDS011;13626;48.128;11.628;2022-08-19T10:25:18;11.38;;;9.98;;
25780;SDS011;13626;48.128;11.628;2022-08-19T10:27:45;12.27;;;10.55;;
25780;SDS011;13626;48.128;11.628;2022-08-19T10:30:16;9.48;;;8.40;;
25780;SDS011;13626;48.128;11.628;2022-08-19T10:32:45;11.50;;;10.25;;
25780;SDS011;13626;48.128;11.628;2022-08-19T10:35:13;12.38;;;10.48;;
25780;SDS011;13626;48.128;11.628;2022-08-19T10:37:47;12.82;;;10.38;;
25780;SDS011;13626;48.128;11.628;2022-08-19T10:40:23;13.00;;;10.82;;
25780;SDS011;13626;48.128;11.628;2022-08-19T10:42:50;13.85;;;11.30;;
25780;SDS011;13626;48.128;11.628;2022-08-19T10:45:17;10.80;;;9.70;;
25780;SDS011;13626;48.128;11.628;2022-08-19T10:47:45;11.57;;;9.93;;
25780;SDS011;13626;48.128;11.628;2022-08-19T10:50:12;10.48;;;9.38;;
25780;SDS011;13626;48.128;11.628;2022-08-19T10:53:02;12.45;;;10.50;;
25780;SDS011;13626;48.128;11.628;2022-08-19T10:55:34;12.45;;;9.75;;
25780;SDS011;13626;48.128;11.628;2022-08-19T10:58:21;11.65;;;9.82;;
25780;SDS011;13626;48.128;11.628;2022-08-19T11:00:52;10.00;;;9.00;;
25780;SDS011;13626;48.128;11.628;2022-08-19T11:03:20;11.35;;;9.70;;
25780;SDS011;13626;48.128;11.628;2022-08-19T11:06:01;10.32;;;9.18;;
25780;SDS011;13626;48.128;11.628;2022-08-19T11:08:28;11.65;;;9.85;;
25780;SDS011;13626;48.128;11.628;2022-08-19T11:10:58;11.63;;;10.05;;
25780;SDS011;13626;48.128;11.628;2022-08-19T11:13:27;12.45;;;10.15;;
25780;SDS011;13626;48.128;11.628;2022-08-19T11:16:02;11.75;;;9.90;;
25780;SDS011;13626;48.128;11.628;2022-08-19T11:18:37;10.70;;;9.48;;
25780;SDS011;13626;48.128;11.628;2022-08-19T11:21:05;10.07;;;8.82;;
25780;SDS011;13626;48.128;11.628;2022-08-19T11:23:34;8.30;;;7.40;;
25780;SDS011;13626;48.128;11.628;2022-08-19T11:26:01;9.00;;;7.50;;
25780;SDS011;13626;48.128;11.628;2022-08-19T11:28:28;11.00;;;7.97;;
25780;SDS011;13626;48.128;11.628;2022-08-19T11:30:56;8.43;;;7.60;;
25780;SDS011;13626;48.128;11.628;2022-08-19T11:33:23;8.32;;;7.45;;
25780;SDS011;13626;48.128;11.628;2022-08-19T11:35:52;8.38;;;7.13;;
25780;SDS011;13626;48.128;11.628;2022-08-19T11:38:20;8.70;;;7.47;;
25780;SDS011;13626;48.128;11.628;2022-08-19T11:40:53;7.10;;;6.40;;
25780;SDS011;13626;48.128;11.628;2022-08-19T11:43:20;8.50;;;7.50;;
25780;SDS011;13626;48.128;11.628;2022-08-19T11:45:48;8.55;;;6.70;;
25780;SDS011;13626;48.128;11.628;2022-08-19T11:48:15;13.40;;;9.40;;
25780;SDS011;13626;48.128;11.628;2022-08-19T11:53:32;9.82;;;8.82;;
25780;SDS011;13626;48.128;11.628;2022-08-19T11:56:00;8.73;;;7.78;;
25780;SDS011;13626;48.128;11.628;2022-08-19T11:58:41;7.55;;;6.63;;
25780;SDS011;13626;48.128;11.628;2022-08-19T12:01:09;7.25;;;6.28;;
25780;SDS011;13626;48.128;11.628;2022-08-19T12:03:37;6.53;;;5.13;;
25780;SDS011;13626;48.128;11.628;2022-08-19T12:06:05;5.43;;;4.93;;
25780;SDS011;13626;48.128;11.628;2022-08-19T12:08:33;7.93;;;5.82;;
25780;SDS011;13626;48.128;11.628;2022-08-19T12:11:00;6.57;;;4.80;;
25780;SDS011;13626;48.128;11.628;2022-08-19T12:13:28;4.60;;;4.20;;
25780;SDS011;13626;48.128;11.628;2022-08-19T12:15:56;3.88;;;3.47;;
25780;SDS011;13626;48.128;11.628;2022-08-19T12:18:24;3.97;;;3.58;;
25780;SDS011;13626;48.128;11.628;2022-08-19T12:20:52;3.72;;;3.38;;
25780;SDS011;13626;48.128;11.628;2022-08-19T12:23:23;2.47;;;2.28;;
25780;SDS011;13626;48.128;11.628;2022-08-19T12:25:50;2.30;;;2.10;;
25780;SDS011;13626;48.128;11.628;2022-08-19T12:28:19;2.60;;;2.38;;
25780;SDS011;13626;48.128;11.628;2022-08-19T12:30:47;2.65;;;1.70;;
25780;SDS011;13626;48.128;11.628;2022-08-19T12:33:14;2.35;;;1.73;;
25780;SDS011;13626;48.128;11.628;2022-08-19T12:35:42;1.75;;;1.50;;
25780;SDS011;13626;48.128;11.628;2022-08-19T12:38:14;1.45;;;1.35;;
25780;SDS011;13626;48.128;11.628;2022-08-19T12:40:45;2.20;;;1.45;;
25780;SDS011;13626;48.128;11.628;2022-08-19T12:43:13;2.00;;;1.25;;
25780;SDS011;13626;48.128;11.628;2022-08-19T12:45:42;2.15;;;1.77;;
25780;SDS011;13626;48.128;11.628;2022-08-19T12:48:12;1.92;;;1.40;;
25780;SDS011;13626;48.128;11.628;2022-08-19T12:50:59;1.52;;;1.38;;
25780;SDS011;13626;48.128;11.628;2022-08-19T12:53:28;1.50;;;1.40;;
25780;SDS011;13626;48.128;11.628;2022-08-19T12:55:56;1.30;;;1.20;;
25780;SDS011;13626;48.128;11.628;2022-08-19T12:58:25;1.35;;;1.20;;
25780;SDS011;13626;48.128;11.628;2022-08-19T13:00:53;2.10;;;1.35;;
25780;SDS011;13626;48.128;11.628;2022-08-19T13:03:21;1.20;;;1.10;;
25780;SDS011;13626;48.128;11.628;2022-08-19T13:05:56;2.70;;;1.50;;
25780;SDS011;13626;48.128;11.628;2022-08-19T13:08:25;1.33;;;1.20;;
25780;SDS011;13626;48.128;11.628;2022-08-19T13:10:53;1.35;;;1.25;;
25780;SDS011;13626;48.128;11.628;2022-08-19T13:13:20;1.50;;;1.27;;
25780;SDS011;13626;48.128;11.628;2022-08-19T13:15:48;2.53;;;1.20;;
25780;SDS011;13626;48.128;11.628;2022-08-19T13:18:16;2.30;;;1.40;;
25780;SDS011;13626;48.128;11.628;2022-08-19T13:20:44;1.63;;;1.30;;
25780;SDS011;13626;48.128;11.628;2022-08-19T13:23:18;1.42;;;1.33;;
25780;SDS011;13626;48.128;11.628;2022-08-19T13:25:54;2.13;;;1.58;;
25780;SDS011;13626;48.128;11.628;2022-08-19T13:28:23;2.03;;;1.50;;
25780;SDS011;13626;48.128;11.628;2022-08-19T13:30:54;1.10;;;1.10;;
25780;SDS011;13626;48.128;11.628;2022-08-19T13:33:40;1.63;;;1.30;;
25780;SDS011;13626;48.128;11.628;2022-08-19T13:36:11;1.73;;;1.63;;
25780;SDS011;13626;48.128;11.628;2022-08-19T13:38:40;1.58;;;1.48;;
25780;SDS011;13626;48.128;11.628;2022-08-19T13:41:08;1.80;;;1.70;;
25780;SDS011;13626;48.128;11.628;2022-08-19T13:43:40;1.92;;;1.60;;
25780;SDS011;13626;48.128;11.628;2022-08-19T13:46:09;2.10;;;1.48;;
25780;SDS011;13626;48.128;11.628;2022-08-19T13:48:40;1.30;;;1.20;;
25780;SDS011;13626;48.128;11.628;2022-08-19T13:51:09;2.35;;;2.13;;
25780;SDS011;13626;48.128;11.628;2022-08-19T13:53:37;1.50;;;1.40;;
25780;SDS011;13626;48.128;11.628;2022-08-19T13:56:05;1.67;;;1.58;;
25780;SDS011;13626;48.128;11.628;2022-08-19T13:58:33;1.35;;;1.25;;
25780;SDS011;13626;48.128;11.628;2022-08-19T14:01:01;1.70;;;1.60;;
25780;SDS011;13626;48.128;11.628;2022-08-19T14:03:29;1.60;;;1.50;;
25780;SDS011;13626;48.128;11.628;2022-08-19T14:05:57;3.08;;;1.80;;
25780;SDS011;13626;48.128;11.628;2022-08-19T14:08:25;2.10;;;1.92;;
25780;SDS011;13626;48.128;11.628;2022-08-19T14:10:54;2.17;;;2.05;;
25780;SDS011;13626;48.128;11.628;2022-08-19T14:13:22;3.33;;;2.10;;
25780;SDS011;13626;48.128;11.628;2022-08-19T14:15:50;2.50;;;2.30;;
25780;SDS011;13626;48.128;11.628;2022-08-19T14:18:18;2.40;;;2.20;;
25780;SDS011;13626;48.128;11.628;2022-08-19T14:20:45;2.63;;;2.00;;
25780;SDS011;13626;48.128;11.628;2022-08-19T14:23:13;2.20;;;2.03;;
25780;SDS011;13626;48.128;11.628;2022-08-19T14:25:41;2.53;;;2.13;;
25780;SDS011;13626;48.128;11.628;2022-08-19T14:28:08;2.40;;;2.20;;
25780;SDS011;13626;48.128;11.628;2022-08-19T14:30:36;2.65;;;2.45;;
25780;SDS011;13626;48.128;11.628;2022-08-19T14:33:05;2.13;;;1.98;;
25780;SDS011;13626;48.128;11.628;2022-08-19T14:35:33;2.40;;;2.10;;
25780;SDS011;13626;48.128;11.628;2022-08-19T14:38:02;2.60;;;2.40;;
25780;SDS011;13626;48.128;11.628;2022-08-19T14:40:29;2.83;;;2.63;;
25780;SDS011;13626;48.128;11.628;2022-08-19T14:42:59;3.42;;;2.55;;
25780;SDS011;13626;48.128;11.628;2022-08-19T14:45:39;3.03;;;2.72;;
25780;SDS011;13626;48.128;11.628;2022-08-19T14:48:09;2.63;;;2.42;;
25780;SDS011;13626;48.128;11.628;2022-08-19T14:50:44;3.20;;;2.90;;
25780;SDS011;13626;48.128;11.628;2022-08-19T14:53:13;4.15;;;3.00;;
25780;SDS011;13626;48.128;11.628;2022-08-19T14:55:41;3.17;;;2.80;;
25780;SDS011;13626;48.128;11.628;2022-08-19T14:58:09;3.33;;;2.78;;
25780;SDS011;13626;48.128;11.628;2022-08-19T15:00:56;2.70;;;2.20;;
25780;SDS011;13626;48.128;11.628;2022-08-19T15:03:24;2.50;;;2.30;;
25780;SDS011;13626;48.128;11.628;2022-08-19T15:05:52;2.75;;;2.55;;
25780;SDS011;13626;48.128;11.628;2022-08-19T15:08:20;2.40;;;2.20;;